Flight Track Log - Related Links

Times and Time Zones

All times are in EDT time to prevent confusion due to time zone crossing. See the GGN7280 flight status page for this flight to view local times or setup timezone preferences in your user account.

Time Position Orientation Groundspeed Altitude Reporting Facility
EDT Latitude Longitude Course Direction KTS MPH feet Rate Location/Type
Mon 09:37:35 AM 43.6500 -79.5833 180° South 60 69 800  Level Toronto Center
Mon 09:38:35 AM 43.6167 -79.5833 180° South 180 207 1,900 1,000 Climbing Toronto Center
Mon 09:39:35 AM 43.5667 -79.5667 166° South 200 230 2,800 1,000 Climbing Toronto Center
Mon 09:40:35 AM 43.5500 -79.4667 103° East 220 253 3,900 1,050 Climbing Toronto Center
Mon 09:41:35 AM 43.5333 -79.4000 109° East 230 265 4,900 750 Climbing Toronto Center
Mon 09:42:35 AM 43.5167 -79.3167 105° East 240 276 5,400 700 Climbing Toronto Center
Mon 09:43:35 AM 43.5000 -79.2167 103° East 240 276 6,300 800 Climbing Toronto Center
Mon 09:44:35 AM 43.4667 -79.1333 119° Southeast 240 276 7,000 850 Climbing Toronto Center
Mon 09:45:35 AM 43.4500 -79.0333 103° East 240 276 8,000 950 Climbing Toronto Center
Mon 09:46:35 AM 43.4333 -78.9500 105° East 250 288 8,900 500 Climbing Toronto Center
Mon 09:47:35 AM 43.4000 -78.8833 125° Southeast 260 299 9,000 50 Climbing Toronto Center
Mon 09:48:35 AM 43.3667 -78.7833 115° Southeast 260 299 9,000  Level Toronto Center
Mon 09:49:35 AM 43.3167 -78.7000 129° Southeast 260 299 9,000  Level Toronto Center
Mon 09:50:35 AM 43.2833 -78.6333 124° Southeast 260 299 9,000  Level Toronto Center
Mon 09:51:35 AM 43.2500 -78.5333 115° Southeast 260 299 9,000  Level Toronto Center
Mon 09:52:35 AM 43.1833 -78.4667 144° Southeast 260 299 9,000  Level Toronto Center
Mon 09:53:35 AM 43.1500 -78.3833 119° Southeast 260 299 9,000  Level Toronto Center
Mon 09:54:35 AM 43.1167 -78.2833 115° Southeast 260 299 9,000  Level Toronto Center
Mon 09:55:35 AM 43.0667 -78.2167 136° Southeast 260 299 9,000  Level Toronto Center
Mon 09:56:35 AM 43.0333 -78.1333 119° Southeast 260 299 9,000  Level Toronto Center
Mon 09:57:35 AM 43.0000 -78.0667 124° Southeast 260 299 9,000  Level Toronto Center
Mon 09:58:35 AM 42.9500 -77.9667 124° Southeast 260 299 9,000  Level Toronto Center
Mon 09:59:35 AM 42.9167 -77.8833 119° Southeast 260 299 9,000  Level Toronto Center
Mon 10:00:05 AM 42.9078 -77.8761 149° Southeast 255 293 9,000  Level Cleveland Center
Mon 10:01:06 AM 42.9078 -77.7825 90° East 258 297 9,000  Level Cleveland Center
Mon 10:02:06 AM 42.9072 -77.6778 90° East 257 296 9,000  Level Cleveland Center
Mon 10:03:07 AM 42.9067 -77.5786 90° East 255 293 9,000  Level Cleveland Center
Mon 10:04:07 AM 42.9022 -77.4822 94° East 260 299 9,000  Level Cleveland Center
Mon 10:05:08 AM 42.9017 -77.3861 90° East 262 302 9,000  Level Cleveland Center
Mon 10:06:15 AM 42.8942 -77.2672 95° East 262 302 9,000  Level Cleveland Center
Mon 10:08:35 AM 42.8833 -77.0167 93° East 260 299 9,000  Level Toronto Center
Mon 10:09:35 AM 42.8833 -76.9333 90° East 260 299 9,000  Level Toronto Center
Mon 10:10:35 AM 42.8833 -76.8167 90° East 260 299 9,000  Level Toronto Center
Mon 10:11:35 AM 42.8833 -76.7167 90° East 260 299 9,000  Level Toronto Center
Mon 10:12:35 AM 42.8667 -76.6333 105° East 260 299 9,000  Level Toronto Center
Mon 10:13:49 AM 42.8747 -76.5375 83° East 259 298 9,000  Level Boston Center
Mon 10:14:50 AM 42.8719 -76.4436 92° East 257 296 9,000  Level Boston Center
Mon 10:15:50 AM 42.8694 -76.3358 92° East 259 298 9,000  Level Boston Center
Mon 10:16:51 AM 42.8642 -76.2392 94° East 257 296 9,000  Level Boston Center
Mon 10:17:52 AM 42.8611 -76.1425 92° East 258 297 9,000  Level Boston Center
Mon 10:18:52 AM 42.8581 -76.0433 92° East 258 297 9,000  Level Boston Center
Mon 10:19:47 AM 42.8547 -75.9553 93° East 259 298 9,000  Level Boston Center
Mon 10:20:47 AM 42.8492 -75.8586 94° East 258 297 9,000  Level Boston Center
Mon 10:21:54 AM 42.8442 -75.7450 93° East 257 296 9,000  Level Boston Center
Mon 10:23:01 AM 42.8389 -75.6400 94° East 259 298 9,000  Level Boston Center
Mon 10:24:01 AM 42.8375 -75.5408 91° East 260 299 9,000  Level Boston Center
Mon 10:24:56 AM 42.8317 -75.4528 95° East 259 298 9,000  Level Boston Center
Mon 10:25:57 AM 42.8278 -75.3561 93° East 259 298 9,000  Level Boston Center
Mon 10:26:57 AM 42.8242 -75.2569 93° East 262 302 9,000  Level Boston Center
Mon 10:27:58 AM 42.8183 -75.1519 94° East 259 298 9,000  Level Boston Center
Mon 10:28:58 AM 42.8144 -75.0525 93° East 261 300 9,000  Level Boston Center
Mon 10:29:59 AM 42.8103 -74.9533 93° East 263 303 9,000  Level Boston Center
Mon 10:31:32 AM 42.8011 -74.8003 95° East 263 303 9,000  Level Boston Center
Mon 10:32:33 AM 42.7969 -74.7008 93° East 261 300 9,000  Level Boston Center
Mon 10:33:34 AM 42.7903 -74.6044 95° East 261 300 9,000  Level Boston Center
Mon 10:34:34 AM 42.7842 -74.4967 94° East 261 300 9,000 -347 Level Boston Center
Mon 10:35:35 AM 42.7817 -74.3978 92° East 265 305 8,300 -683 Descending Boston Center
Mon 10:36:37 AM 42.7750 -74.2928 95° East 272 313 7,600 -783 Descending Boston Center
Mon 10:37:30 AM 42.7492 -74.2128 114° Southeast 273 314 6,800 -947 Descending Boston Center
Mon 10:38:31 AM 42.6942 -74.1406 136° Southeast 279 321 5,800 -1,078 Descending Boston Center
Mon 10:39:38 AM 42.6347 -74.0628 136° Southeast 274 315 4,500 -850 Descending Boston Center
Mon 10:40:38 AM 42.5814 -73.9967 138° Southeast 229 264 4,000 -378 Descending Boston Center
Mon 10:41:45 AM 42.5344 -73.9364 137° Southeast 212 244 3,700 -269 Descending Boston Center

Login

Don't have an account? Register now (free) for customized features, flight alerts, and more!